Winfield, Kansas
Current Conditions -  °F | °C
As of 4:54 PM on Tuesday 27 Jan 2015 (Local Time) from KWLD Reporting Station
Clear Clear  
Wind Chill: 71°   Ceiling: Unl
Heat Index: 71°   Visibility: 10mi
Dew Point: 31°   Wind: 8mph
Humidity: 23%   Direction: 190°S
Pressure: 30.03"   Gusts: NA
Location:  37.24°N, 97°W
Report Text: KWLD 272254Z AUTO 19007KT 10SM CLR 22/M01 A3003 RMK AO2 SLP169 T02171006
Loading
Personal Weather Stations






























Interactive Weather Map New forecast layout! Learn more

10-Day Weather Forecast

Advertisements
Track Severe Weather on mobile